Time;durP1;ratioP1;P1;durP2;ratioP2;P2;SDS_P1;SDS_P2;PMS_P1;PMS_P2;Temp;Humidity;BMP_temperature;BMP_pressure;BME280_temperature;BME280_humidity;BME280_pressure;Samples;Min_cycle;Max_cycle;Signal;HPM_P1;HPM_P2
2024/02/06 00:00:59;;;;;;;10.35;4.75;;;;;;;2.03;80.46;97810.44;1224959;75;2915888;-64
2024/02/06 00:03:31;;;;;;;6.75;4.15;;;;;;;1.97;79.36;97812.09;1225153;75;2922819;-66
2024/02/06 00:06:04;;;;;;;5.30;3.40;;;;;;;2.21;78.55;97806.63;1225372;75;2921494;-65
2024/02/06 00:08:37;;;;;;;4.00;2.80;;;;;;;2.32;76.16;97810.66;1225414;75;2918119;-65
2024/02/06 00:11:10;;;;;;;2.90;2.15;;;;;;;2.40;76.38;97813.22;1225137;75;2913336;-65
2024/02/06 00:13:45;;;;;;;6.45;3.20;;;;;;;2.28;78.36;97807.25;1224212;75;2931374;-66
2024/02/06 00:16:18;;;;;;;4.35;2.95;;;;;;;2.21;78.51;97802.00;1224938;75;2919559;-66
2024/02/06 00:18:51;;;;;;;3.00;2.30;;;;;;;2.29;77.38;97805.34;1224560;75;2949125;-64
2024/02/06 00:21:23;;;;;;;3.15;2.05;;;;;;;2.13;77.93;97800.63;1224180;75;2923265;-64
2024/02/06 00:23:56;;;;;;;4.60;3.05;;;;;;;1.76;80.62;97797.06;1224854;75;2922502;-66
2024/02/06 00:26:28;;;;;;;5.55;3.20;;;;;;;1.97;81.43;97798.59;1224158;75;2920233;-63
2024/02/06 00:29:04;;;;;;;6.40;3.30;;;;;;;1.86;82.45;97798.06;1224813;75;2921794;-65
2024/02/06 00:31:37;;;;;;;4.35;2.60;;;;;;;2.01;79.50;97791.19;1225354;75;2916801;-66
2024/02/06 00:34:09;;;;;;;3.30;2.05;;;;;;;1.99;79.26;97788.16;1224985;75;2924562;-66
2024/02/06 00:36:42;;;;;;;7.40;3.45;;;;;;;1.60;83.25;97795.03;1224672;75;2920952;-66
2024/02/06 00:39:14;;;;;;;5.90;3.00;;;;;;;1.79;82.71;97795.47;1222771;75;2951378;-64
2024/02/06 00:41:47;;;;;;;4.45;2.35;;;;;;;1.69;82.63;97795.25;1224677;75;2921599;-64
2024/02/06 00:44:22;;;;;;;3.25;2.20;;;;;;;1.84;81.08;97798.44;1224386;75;2922606;-66
2024/02/06 00:46:55;;;;;;;3.10;2.10;;;;;;;1.66;83.10;97793.38;1225309;75;2922519;-65
2024/02/06 00:49:27;;;;;;;4.85;2.70;;;;;;;1.73;82.21;97800.56;1224911;75;2915282;-65
2024/02/06 00:52:00;;;;;;;3.15;2.25;;;;;;;1.68;84.50;97792.94;1224036;75;2917532;-64
2024/02/06 00:54:32;;;;;;;4.80;2.85;;;;;;;1.47;84.70;97802.94;1224813;75;2920477;-64
2024/02/06 00:57:06;;;;;;;5.55;3.65;;;;;;;1.40;86.29;97791.53;1224241;75;2921384;-65
2024/02/06 00:59:42;;;;;;;6.90;4.00;;;;;;;1.47;86.04;97794.09;1224485;75;2924206;-64
2024/02/06 01:02:14;;;;;;;4.50;3.25;;;;;;;1.55;84.90;97797.44;1224244;75;2918092;-65
2024/02/06 01:04:47;;;;;;;4.55;2.90;;;;;;;1.44;86.38;97792.19;1224385;75;2975019;-66
2024/02/06 01:07:20;;;;;;;3.70;2.45;;;;;;;1.47;84.75;97791.41;1225369;75;2919629;-64
2024/02/06 01:09:53;;;;;;;2.55;2.00;;;;;;;1.45;84.45;97796.44;1224545;75;2924536;-66
2024/02/06 01:12:26;;;;;;;2.85;1.90;;;;;;;1.50;83.89;97798.66;1225424;75;2917372;-65
2024/02/06 01:15:02;;;;;;;2.95;2.05;;;;;;;1.39;84.53;97782.66;1225102;75;2915816;-61
2024/02/06 01:17:34;;;;;;;2.40;1.60;;;;;;;1.30;85.54;97787.03;1221512;75;3023731;-64
2024/02/06 01:20:09;;;;;;;1.90;1.40;;;;;;;1.27;86.35;97786.72;1225303;75;2921511;-65
2024/02/06 01:22:42;;;;;;;2.15;1.60;;;;;;;1.35;85.17;97775.78;1224523;75;2926197;-64
2024/02/06 01:25:15;;;;;;;2.90;1.40;;;;;;;1.30;87.30;97782.44;1224752;75;2915641;-65
2024/02/06 01:27:47;;;;;;;2.90;2.00;;;;;;;0.90;90.68;97770.72;1224648;75;2918566;-65
2024/02/06 01:30:23;;;;;;;5.80;3.40;;;;;;;0.76;93.44;97779.78;1225238;75;2934679;-65
2024/02/06 01:32:56;;;;;;;7.20;4.40;;;;;;;0.95;92.11;97779.09;1225288;75;2915048;-65
2024/02/06 01:35:29;;;;;;;6.65;4.15;;;;;;;1.23;89.50;97774.47;1224064;75;2919355;-64
2024/02/06 01:38:01;;;;;;;6.75;3.45;;;;;;;1.15;88.92;97773.78;1224902;75;2927197;-65
2024/02/06 01:40:41;;;;;;;6.80;4.10;;;;;;;1.19;87.67;97771.03;1224158;75;2917330;-65
2024/02/06 01:43:15;;;;;;;4.50;2.70;;;;;;;1.24;86.67;97771.34;1224635;75;2921708;-67
2024/02/06 01:45:52;;;;;;;5.95;2.80;;;;;;;1.18;86.42;97772.97;1224552;75;2935914;-64
2024/02/06 01:48:25;;;;;;;2.75;1.90;;;;;;;1.16;87.78;97761.84;1225663;75;2919243;-66
2024/02/06 01:50:58;;;;;;;3.75;2.30;;;;;;;0.98;88.88;97751.31;1224077;75;2920549;-68
2024/02/06 01:53:31;;;;;;;3.70;2.65;;;;;;;1.03;88.98;97755.50;1224358;75;2920671;-65
2024/02/06 01:56:04;;;;;;;3.40;2.20;;;;;;;1.10;89.36;97752.69;1224505;75;2919300;-66
2024/02/06 01:58:37;;;;;;;6.20;2.10;;;;;;;0.95;89.88;97754.09;1224853;75;2920981;-67
2024/02/06 02:01:13;;;;;;;3.65;2.00;;;;;;;1.01;88.20;97750.53;1224609;75;2919889;-64
2024/02/06 02:03:47;;;;;;;3.55;1.80;;;;;;;0.99;87.72;97749.41;1225433;75;2917355;-66
2024/02/06 02:06:21;;;;;;;1.75;1.40;;;;;;;1.02;87.49;97737.81;1224209;75;2935251;-65
2024/02/06 02:08:55;;;;;;;2.05;1.50;;;;;;;0.87;89.06;97733.78;1223970;75;2926944;-64
2024/02/06 02:11:27;;;;;;;2.30;1.45;;;;;;;0.87;90.06;97731.88;1225215;75;2918958;-64
2024/02/06 02:14:01;;;;;;;3.95;2.00;;;;;;;0.62;93.89;97735.69;1224339;75;2920429;-66
2024/02/06 02:16:36;;;;;;;3.15;1.80;;;;;;;0.67;93.57;97725.63;1224665;75;2928968;-64
2024/02/06 02:19:09;;;;;;;4.65;2.65;;;;;;;0.56;95.15;97721.16;1224713;75;2921539;-65
2024/02/06 02:21:45;;;;;;;2.90;1.85;;;;;;;0.67;93.09;97712.91;1223723;75;2925884;-65
2024/02/06 02:24:19;;;;;;;3.05;1.80;;;;;;;0.68;89.55;97717.16;1224251;75;2922880;-63
2024/02/06 02:26:52;;;;;;;5.60;2.10;;;;;;;0.71;90.81;97720.97;1223736;75;2923036;-65
2024/02/06 02:29:27;;;;;;;3.30;1.85;;;;;;;0.74;88.67;97718.19;1224549;75;2917238;-66
2024/02/06 02:32:01;;;;;;;3.20;1.80;;;;;;;0.72;88.50;97709.78;1224519;75;2919438;-66
2024/02/06 02:34:34;;;;;;;2.65;2.00;;;;;;;0.53;91.10;97708.53;1224037;75;2921163;-63
2024/02/06 02:37:10;;;;;;;3.45;1.85;;;;;;;0.62;90.08;97697.97;1224207;75;2914940;-65
2024/02/06 02:39:43;;;;;;;4.05;2.40;;;;;;;0.46;91.88;97694.38;1224277;75;2923917;-63
2024/02/06 02:42:16;;;;;;;4.30;2.55;;;;;;;0.35;93.10;97697.22;1223191;75;2922051;-62
2024/02/06 02:44:49;;;;;;;2.80;1.90;;;;;;;0.49;91.54;97704.34;1220286;75;3111764;-65
2024/02/06 02:47:22;;;;;;;3.70;2.05;;;;;;;0.51;91.13;97691.25;1224004;75;2942062;-65
2024/02/06 02:49:54;;;;;;;3.50;2.00;;;;;;;0.55;88.89;97686.53;1223567;75;2935338;-64
2024/02/06 02:52:30;;;;;;;2.55;1.60;;;;;;;0.50;88.52;97687.75;1223813;75;2919080;-66
2024/02/06 02:55:03;;;;;;;2.65;1.55;;;;;;;0.30;91.66;97684.22;1223691;75;2922872;-63
2024/02/06 02:57:35;;;;;;;2.70;1.60;;;;;;;0.37;91.53;97684.13;1225174;75;2920899;-66
2024/02/06 03:00:11;;;;;;;2.25;1.65;;;;;;;0.35;91.53;97683.75;1223992;75;2918137;-64
2024/02/06 03:02:43;;;;;;;3.10;1.80;;;;;;;0.39;90.13;97682.53;1223349;75;2925004;-64
2024/02/06 03:05:17;;;;;;;2.80;1.60;;;;;;;0.35;90.66;97673.00;1223826;75;2923413;-64
2024/02/06 03:07:52;;;;;;;6.95;1.75;;;;;;;0.09;93.23;97671.81;1224744;75;2915750;-64
2024/02/06 03:10:25;;;;;;;3.45;1.90;;;;;;;-0.10;97.32;97679.34;1225528;75;2915886;-66
2024/02/06 03:12:58;;;;;;;3.15;2.15;;;;;;;0.09;97.12;97672.56;1224478;75;2917387;-67
2024/02/06 03:15:31;;;;;;;4.05;2.50;;;;;;;0.14;95.75;97674.03;1224315;75;2928678;-66
2024/02/06 03:18:03;;;;;;;4.40;2.05;;;;;;;0.13;95.55;97678.66;1223505;75;2921239;-65
2024/02/06 03:20:36;;;;;;;7.20;2.10;;;;;;;0.16;95.36;97669.03;1224871;75;2922027;-65
2024/02/06 03:23:12;;;;;;;5.60;2.75;;;;;;;0.20;95.16;97670.50;1224126;75;2921638;-65
2024/02/06 03:25:45;;;;;;;7.20;2.25;;;;;;;0.01;96.11;97675.78;1224204;75;2920659;-65
2024/02/06 03:28:17;;;;;;;4.05;2.40;;;;;;;0.15;94.95;97684.41;1224083;75;2927221;-66
2024/02/06 03:30:50;;;;;;;5.25;2.55;;;;;;;0.17;96.40;97679.38;1223826;75;2932800;-65
2024/02/06 03:33:23;;;;;;;5.70;2.70;;;;;;;0.17;98.97;97686.72;1223827;75;2933026;-65
2024/02/06 03:35:56;;;;;;;5.70;3.50;;;;;;;0.20;100.00;97688.59;1225092;75;2928467;-67
2024/02/06 03:38:31;;;;;;;7.35;3.90;;;;;;;0.36;100.00;97687.97;1225065;75;2917882;-64
2024/02/06 03:41:04;;;;;;;7.55;3.90;;;;;;;0.34;100.00;97687.63;1224198;75;2916858;-65
2024/02/06 03:43:37;;;;;;;5.40;3.25;;;;;;;0.45;96.14;97699.00;1224333;75;2919714;-66
2024/02/06 03:46:10;;;;;;;5.10;2.90;;;;;;;0.20;99.66;97689.34;1224285;75;2924797;-65
2024/02/06 03:48:43;;;;;;;3.45;2.30;;;;;;;0.28;97.32;97691.94;1223589;75;2934724;-65
2024/02/06 03:51:16;;;;;;;3.90;2.35;;;;;;;0.25;98.43;97701.59;1224550;75;2929577;-66
2024/02/06 03:53:51;;;;;;;5.70;2.80;;;;;;;0.19;98.59;97689.75;1222870;75;2925655;-62
2024/02/06 03:56:24;;;;;;;5.30;2.40;;;;;;;0.19;97.08;97692.44;1223935;75;2930356;-66
2024/02/06 03:58:57;;;;;;;3.70;2.00;;;;;;;0.16;97.19;97693.25;1225043;75;2918376;-64
2024/02/06 04:01:29;;;;;;;5.70;3.35;;;;;;;-0.04;100.00;97695.81;1224897;75;2925857;-67
2024/02/06 04:04:03;;;;;;;6.40;3.05;;;;;;;-0.07;100.00;97689.31;1224209;75;2927342;-66
2024/02/06 04:06:36;;;;;;;6.55;3.30;;;;;;;0.14;100.00;97687.50;1223345;75;2940380;-63
2024/02/06 04:09:11;;;;;;;5.90;3.15;;;;;;;0.17;97.89;97689.41;1224281;75;2923365;-65
2024/02/06 04:11:44;;;;;;;4.60;3.00;;;;;;;0.16;98.78;97685.16;1224127;75;2920889;-66
2024/02/06 04:14:17;;;;;;;6.40;3.45;;;;;;;0.13;96.74;97686.00;1225007;75;2917662;-63
2024/02/06 04:16:54;;;;;;;4.20;2.50;;;;;;;-0.05;98.60;97695.06;1224689;75;2921499;-64
2024/02/06 04:19:27;;;;;;;6.25;2.65;;;;;;;0.02;97.75;97677.28;1225374;75;2919687;-64
2024/02/06 04:22:00;;;;;;;4.75;2.75;;;;;;;-0.01;98.32;97678.84;1224158;75;2945451;-66
2024/02/06 04:24:35;;;;;;;4.00;2.25;;;;;;;-0.02;96.89;97671.97;1223815;75;2923434;-63
2024/02/06 04:27:08;;;;;;;3.20;2.20;;;;;;;-0.07;98.44;97673.16;1224556;75;2922600;-64
2024/02/06 04:29:41;;;;;;;3.30;2.40;;;;;;;-0.14;100.00;97678.63;1224739;67;2920286;-64
2024/02/06 04:32:14;;;;;;;3.30;2.25;;;;;;;-0.05;99.23;97672.75;1224089;75;2921590;-66
2024/02/06 04:34:47;;;;;;;5.25;2.65;;;;;;;-0.04;100.00;97669.66;1224874;75;2920819;-63
2024/02/06 04:37:20;;;;;;;3.95;2.40;;;;;;;-0.12;99.87;97673.63;1225195;75;2922240;-68
2024/02/06 04:39:55;;;;;;;4.05;2.40;;;;;;;-0.10;99.58;97673.94;1223392;75;2921327;-64
2024/02/06 04:42:28;;;;;;;5.15;2.80;;;;;;;-0.19;98.35;97678.31;1224698;75;2920106;-64
2024/02/06 04:45:02;;;;;;;6.45;3.30;;;;;;;-0.13;100.00;97676.69;1222905;75;2939340;-65
2024/02/06 04:47:35;;;;;;;4.30;2.65;;;;;;;-0.12;97.12;97678.22;1224651;75;2929570;-63
2024/02/06 04:50:09;;;;;;;3.60;2.45;;;;;;;-0.05;98.53;97678.13;1224749;75;2925671;-64
2024/02/06 04:52:42;;;;;;;6.55;2.75;;;;;;;-0.16;99.20;97667.50;1225016;75;2921511;-63
2024/02/06 04:55:18;;;;;;;4.60;2.55;;;;;;;-0.05;98.60;97665.47;1225442;75;2908812;-63
2024/02/06 04:57:51;;;;;;;3.30;2.45;;;;;;;0.02;97.40;97661.13;1223511;75;2924076;-64
2024/02/06 05:00:24;;;;;;;5.15;2.35;;;;;;;0.03;96.74;97654.59;1223383;75;2923911;-63
2024/02/06 05:02:57;;;;;;;2.40;1.70;;;;;;;-0.02;98.08;97650.44;1224515;75;2920766;-62
2024/02/06 05:05:30;;;;;;;4.35;2.10;;;;;;;-0.17;100.00;97660.59;1224398;75;2921988;-66
2024/02/06 05:08:03;;;;;;;6.00;3.50;;;;;;;0.06;99.84;97653.78;1224247;75;2938523;-65
2024/02/06 05:10:39;;;;;;;3.75;2.60;;;;;;;0.15;96.13;97646.72;1224412;75;2921152;-66
2024/02/06 05:13:12;;;;;;;3.90;2.50;;;;;;;0.21;94.73;97641.63;1224095;75;2929551;-63
2024/02/06 05:15:45;;;;;;;5.25;2.30;;;;;;;0.09;95.79;97655.66;1225274;75;2921607;-62
2024/02/06 05:18:18;;;;;;;5.35;2.60;;;;;;;0.06;96.68;97653.78;1224288;75;2923633;-64
2024/02/06 05:20:50;;;;;;;6.65;3.65;;;;;;;0.08;98.30;97646.06;1223430;75;2934969;-65
2024/02/06 05:23:23;;;;;;;7.35;4.40;;;;;;;0.15;97.06;97649.41;1223226;75;2921733;-65
2024/02/06 05:25:59;;;;;;;6.80;3.80;;;;;;;0.25;95.43;97649.69;1224887;75;2920700;-65
2024/02/06 05:28:32;;;;;;;6.35;3.45;;;;;;;0.26;94.78;97640.44;1223797;75;2926958;-65
2024/02/06 05:31:05;;;;;;;10.85;6.10;;;;;;;0.30;94.75;97644.59;1224729;75;2918989;-64
2024/02/06 05:33:38;;;;;;;9.90;5.60;;;;;;;0.34;95.04;97639.16;1224505;75;2925756;-64
2024/02/06 05:36:12;;;;;;;12.95;6.20;;;;;;;0.32;93.48;97642.25;1224398;75;2929605;-65
2024/02/06 05:38:44;;;;;;;15.10;8.20;;;;;;;0.46;91.95;97641.28;1224165;75;2916883;-63
2024/02/06 05:41:20;;;;;;;16.30;8.90;;;;;;;0.50;90.29;97644.66;1224260;75;2920058;-65
2024/02/06 05:43:53;;;;;;;18.90;11.90;;;;;;;0.63;89.34;97645.63;1224172;75;2923753;-64
2024/02/06 05:46:26;;;;;;;15.65;8.85;;;;;;;0.67;89.28;97636.72;1223598;75;2927656;-64
2024/02/06 05:48:59;;;;;;;12.25;7.10;;;;;;;0.59;90.11;97644.91;1221905;75;2923178;-66
2024/02/06 05:51:32;;;;;;;9.25;5.35;;;;;;;0.66;87.59;97649.44;1222953;75;2922782;-66
2024/02/06 05:54:04;;;;;;;7.25;4.80;;;;;;;0.63;88.10;97645.63;1222702;75;2923027;-64
2024/02/06 05:56:40;;;;;;;8.50;4.35;;;;;;;0.67;89.42;97644.81;1223454;75;2920269;-64
2024/02/06 05:59:10;;;;;;;5.45;3.85;;;;;;;0.68;88.36;97644.41;1222683;75;2926165;-64
2024/02/06 06:01:43;;;;;;;7.00;4.00;;;;;;;0.77;87.81;97647.34;1222484;75;2926122;-65
2024/02/06 06:04:16;;;;;;;6.30;3.45;;;;;;;0.77;88.12;97650.03;1223936;75;2919632;-65
2024/02/06 06:06:49;;;;;;;5.85;2.80;;;;;;;0.79;87.25;97638.84;1223737;75;2925370;-64
2024/02/06 06:09:21;;;;;;;5.05;3.25;;;;;;;0.81;86.48;97645.34;1223327;75;2925710;-63
2024/02/06 06:11:57;;;;;;;4.35;2.30;;;;;;;0.77;86.92;97644.66;1223295;75;2923537;-65
2024/02/06 06:14:30;;;;;;;4.15;2.35;;;;;;;0.79;86.81;97650.38;1223081;75;2924604;-66
2024/02/06 06:17:03;;;;;;;5.60;2.45;;;;;;;0.72;86.93;97653.19;1222904;75;2925423;-64
2024/02/06 06:19:35;;;;;;;4.95;2.65;;;;;;;0.62;88.19;97646.78;1222879;75;2927044;-66
2024/02/06 06:22:09;;;;;;;3.95;2.30;;;;;;;0.71;87.33;97656.28;1223145;75;2922311;-66
2024/02/06 06:24:42;;;;;;;4.35;2.50;;;;;;;0.67;91.03;97660.97;1222312;75;2933568;-64
2024/02/06 06:27:19;;;;;;;3.60;2.40;;;;;;;0.66;90.95;97654.81;1223525;75;2921804;-62
2024/02/06 06:29:52;;;;;;;7.50;3.80;;;;;;;0.62;92.01;97651.41;1223526;75;2926230;-65
2024/02/06 06:32:26;;;;;;;7.70;3.90;;;;;;;0.72;93.32;97644.34;1223760;75;2918161;-65
2024/02/06 06:34:59;;;;;;;5.40;3.40;;;;;;;0.80;91.61;97653.84;1222634;75;2923121;-64
2024/02/06 06:37:32;;;;;;;6.30;3.25;;;;;;;0.77;91.26;97654.63;1223415;75;2925709;-65
2024/02/06 06:40:05;;;;;;;5.10;3.00;;;;;;;0.73;91.97;97651.25;1222975;75;2924050;-65
2024/02/06 06:42:40;;;;;;;5.95;3.45;;;;;;;0.81;91.31;97637.25;1223164;75;2920233;-66
2024/02/06 06:45:14;;;;;;;4.50;2.45;;;;;;;0.89;90.58;97643.31;1222132;75;2924883;-66
2024/02/06 06:47:49;;;;;;;4.20;2.65;;;;;;;0.97;90.05;97642.00;1223574;75;2917775;-66
2024/02/06 06:50:22;;;;;;;4.10;2.75;;;;;;;0.98;89.73;97645.44;1222195;75;2936697;-64
2024/02/06 06:52:54;;;;;;;3.50;2.45;;;;;;;0.87;89.99;97639.47;1223450;75;2922378;-64
2024/02/06 06:55:27;;;;;;;6.70;3.95;;;;;;;0.89;90.65;97640.59;1224262;75;2928536;-65
2024/02/06 06:58:03;;;;;;;3.95;2.55;;;;;;;1.01;89.55;97645.41;1223813;75;2929793;-66
2024/02/06 07:00:37;;;;;;;5.70;2.80;;;;;;;1.01;90.36;97645.41;1224402;75;2922827;-66
2024/02/06 07:03:09;;;;;;;6.70;3.35;;;;;;;1.07;90.93;97651.06;1223877;75;2931142;-66
2024/02/06 07:05:42;;;;;;;11.10;5.35;;;;;;;0.99;90.58;97642.34;1224394;75;2928953;-63
2024/02/06 07:08:15;;;;;;;6.10;3.70;;;;;;;1.22;88.00;97646.94;1224526;75;2925471;-65
2024/02/06 07:10:48;;;;;;;6.65;3.60;;;;;;;1.20;89.20;97648.53;1223803;75;2922677;-64
2024/02/06 07:13:23;;;;;;;5.80;3.30;;;;;;;1.43;87.52;97648.47;1025724;75;19447970;-66
2024/02/06 07:15:56;;;;;;;5.40;3.35;;;;;;;1.37;87.22;97646.69;1187065;75;5337882;-64
2024/02/06 07:18:30;;;;;;;5.45;2.80;;;;;;;1.61;86.35;97652.78;1222746;75;2921138;-65
2024/02/06 07:21:03;;;;;;;5.05;3.05;;;;;;;1.65;85.59;97651.53;1222956;75;2852692;-66
2024/02/06 07:23:37;;;;;;;8.10;4.10;;;;;;;1.67;85.74;97643.78;1009587;75;12485854;-61
2024/02/06 07:26:11;;;;;;;7.60;4.50;;;;;;;1.66;86.56;97647.66;1222966;75;2929070;-64
2024/02/06 07:28:47;;;;;;;5.35;3.70;;;;;;;1.94;84.88;97642.09;1223137;75;2921812;-64
2024/02/06 07:31:20;;;;;;;7.65;4.30;;;;;;;2.16;83.25;97645.84;1223073;75;2930940;-64
2024/02/06 07:33:53;;;;;;;5.80;4.50;;;;;;;2.82;80.14;97645.91;1032021;75;21573953;-62
2024/02/06 07:36:29;;;;;;;4.95;3.30;;;;;;;3.53;75.41;97646.00;1211995;75;3577358;-64
2024/02/06 07:39:02;;;;;;;10.65;4.25;;;;;;;3.54;74.60;97642.13;1222579;75;2929858;-65
2024/02/06 07:41:34;;;;;;;5.25;3.60;;;;;;;3.74;74.00;97650.84;1222217;75;2924728;-64
2024/02/06 07:44:10;;;;;;;8.75;4.30;;;;;;;3.65;74.79;97655.34;1223179;75;2931747;-63
2024/02/06 07:46:43;;;;;;;17.60;6.15;;;;;;;4.15;73.81;97648.53;1222409;83;2924847;-65
2024/02/06 07:49:16;;;;;;;8.35;4.80;;;;;;;6.36;67.93;97650.38;1223261;75;2927948;-64
2024/02/06 07:51:49;;;;;;;8.65;4.85;;;;;;;9.65;57.52;97637.63;1220028;75;3098123;-65
2024/02/06 07:54:22;;;;;;;8.30;5.00;;;;;;;8.93;57.39;97651.38;1222925;75;2937172;-64
2024/02/06 07:56:55;;;;;;;7.15;4.35;;;;;;;10.18;54.61;97646.97;1223396;75;2927650;-65
2024/02/06 07:59:32;;;;;;;5.95;3.80;;;;;;;12.21;49.75;97649.44;1223067;75;2927303;-64
2024/02/06 08:02:08;;;;;;;5.30;3.60;;;;;;;12.56;47.54;97646.47;1221973;75;2923565;-65
2024/02/06 08:04:41;;;;;;;7.05;5.10;;;;;;;12.70;47.68;97645.56;1224123;75;2922506;-63
2024/02/06 08:07:14;;;;;;;4.50;3.40;;;;;;;13.83;45.32;97657.03;1222860;83;2933524;-65
2024/02/06 08:09:48;;;;;;;6.40;3.50;;;;;;;12.93;45.20;97648.44;1223263;75;2894909;-64
2024/02/06 08:12:21;;;;;;;8.95;4.20;;;;;;;11.91;48.08;97655.94;1216479;75;3272366;-65
2024/02/06 08:14:56;;;;;;;6.55;3.85;;;;;;;14.03;44.61;97656.06;1223455;75;2934004;-64
2024/02/06 08:17:29;;;;;;;6.85;3.60;;;;;;;14.72;43.69;97652.81;1224890;75;2919417;-67
2024/02/06 08:20:03;;;;;;;5.25;2.95;;;;;;;14.45;42.87;97655.03;1223773;75;2924734;-66
2024/02/06 08:22:36;;;;;;;5.80;3.15;;;;;;;14.96;41.26;97660.53;1224138;75;2918158;-65
2024/02/06 08:25:10;;;;;;;4.80;2.90;;;;;;;15.23;41.26;97655.41;1223919;75;2922413;-64
2024/02/06 08:27:43;;;;;;;3.80;2.35;;;;;;;15.80;40.00;97648.38;1223008;75;2923850;-66
2024/02/06 08:30:19;;;;;;;7.30;3.95;;;;;;;12.37;44.29;97651.56;1224351;75;2925186;-63
2024/02/06 08:32:52;;;;;;;8.95;3.95;;;;;;;12.58;45.51;97646.75;1222185;75;2924829;-66
2024/02/06 08:35:25;;;;;;;7.30;3.65;;;;;;;12.91;44.19;97646.16;1224679;75;2929264;-63
2024/02/06 08:37:58;;;;;;;8.45;3.30;;;;;;;14.54;42.59;97642.31;1224538;83;2926299;-63
2024/02/06 08:40:31;;;;;;;10.45;3.30;;;;;;;15.68;41.26;97633.88;1224244;75;2924169;-66
2024/02/06 08:43:04;;;;;;;5.65;2.40;;;;;;;16.54;39.34;97629.22;1222190;75;2930262;-67
2024/02/06 08:45:40;;;;;;;7.75;2.40;;;;;;;15.12;39.48;97632.13;1223980;75;2925999;-63
2024/02/06 08:48:13;;;;;;;6.25;3.10;;;;;;;15.30;41.28;97625.28;1224097;75;2919175;-66
2024/02/06 08:50:49;;;;;;;7.10;3.75;;;;;;;14.84;41.89;97625.94;1224880;75;2926241;-63
2024/02/06 08:53:22;;;;;;;5.90;3.10;;;;;;;15.96;40.26;97625.44;1223254;75;2938902;-66
2024/02/06 08:55:57;;;;;;;7.10;3.00;;;;;;;16.59;39.23;97628.41;1224705;75;2923209;-67
2024/02/06 08:58:29;;;;;;;4.60;2.40;;;;;;;16.88;38.75;97626.16;1223826;75;2921916;-65
2024/02/06 09:01:05;;;;;;;9.80;2.95;;;;;;;14.54;40.82;97623.78;1224420;75;2923353;-65
2024/02/06 09:03:38;;;;;;;8.05;3.25;;;;;;;13.90;42.87;97628.25;1223218;75;2922589;-64
2024/02/06 09:06:11;;;;;;;10.25;3.75;;;;;;;11.64;45.44;97632.47;1224209;75;2931315;-64
2024/02/06 09:08:44;;;;;;;8.90;4.10;;;;;;;12.22;45.34;97628.97;1223012;75;2921799;-66
2024/02/06 09:11:17;;;;;;;8.45;3.60;;;;;;;12.75;45.03;97614.63;1224786;75;2921871;-66
2024/02/06 09:13:50;;;;;;;6.40;3.15;;;;;;;14.21;42.52;97616.25;1223650;75;2924637;-64
2024/02/06 09:16:26;;;;;;;5.10;2.80;;;;;;;15.30;42.04;97617.03;1223510;75;2922094;-67
2024/02/06 09:18:59;;;;;;;9.65;2.85;;;;;;;14.51;42.05;97615.75;1222624;75;2926320;-65
2024/02/06 09:21:33;;;;;;;9.35;4.40;;;;;;;12.55;44.33;97612.78;1220945;75;2950471;-66
2024/02/06 09:24:06;;;;;;;10.05;3.95;;;;;;;12.52;45.74;97608.25;1224462;75;2919195;-64
2024/02/06 09:26:40;;;;;;;8.30;3.65;;;;;;;12.39;44.58;97610.66;1224409;75;2923960;-66
2024/02/06 09:29:13;;;;;;;8.05;4.30;;;;;;;13.44;44.21;97610.91;1224169;75;2925262;-67
2024/02/06 09:31:50;;;;;;;6.15;2.80;;;;;;;14.99;41.58;97604.38;1224382;75;2920604;-65
2024/02/06 09:34:23;;;;;;;4.20;2.45;;;;;;;15.74;41.40;97598.72;1222976;75;2928875;-64
2024/02/06 09:36:56;;;;;;;4.55;2.30;;;;;;;16.85;39.32;97603.06;1224248;83;2930392;-66
2024/02/06 09:39:29;;;;;;;8.30;2.20;;;;;;;17.45;38.62;97594.50;1224133;75;2926838;-67
2024/02/06 09:42:03;;;;;;;7.50;2.70;;;;;;;16.80;38.48;97601.09;1223213;75;2935795;-64
2024/02/06 09:44:36;;;;;;;4.95;2.10;;;;;;;17.31;37.76;97595.69;1224752;75;2920475;-66
2024/02/06 09:47:11;;;;;;;4.55;2.35;;;;;;;17.19;37.56;97592.31;1223658;75;2919796;-64
2024/02/06 09:49:44;;;;;;;4.35;2.30;;;;;;;18.83;37.09;97587.03;1224050;75;2928424;-65
2024/02/06 09:52:19;;;;;;;6.60;2.30;;;;;;;18.83;34.96;97590.56;1223859;75;2923705;-66
2024/02/06 09:54:55;;;;;;;5.70;2.90;;;;;;;18.70;35.49;97591.25;1223642;75;2921715;-64
2024/02/06 09:57:28;;;;;;;4.30;1.70;;;;;;;19.06;34.94;97579.75;1223457;75;2929805;-66
2024/02/06 10:00:01;;;;;;;7.10;2.45;;;;;;;18.09;35.02;97593.84;1224359;75;2936235;-63
2024/02/06 10:02:40;;;;;;;5.75;2.35;;;;;;;18.91;35.01;97585.84;1221928;75;2923730;-65
2024/02/06 10:05:21;;;;;;;4.00;2.10;;;;;;;16.87;35.51;97592.22;1223577;75;2927238;-66
2024/02/06 10:07:54;;;;;;;4.30;1.70;;;;;;;16.93;35.81;97581.84;1222764;75;2931240;-66
2024/02/06 10:10:29;;;;;;;2.65;1.45;;;;;;;18.14;34.38;97580.44;1222999;75;2934219;-65
2024/02/06 10:13:04;;;;;;;4.60;1.90;;;;;;;17.78;34.66;97572.41;1223412;75;2923083;-65
2024/02/06 10:15:37;;;;;;;3.90;1.90;;;;;;;17.55;35.41;97578.25;1224444;75;2920472;-65
2024/02/06 10:18:13;;;;;;;5.65;2.15;;;;;;;16.79;35.14;97574.72;1223942;75;2929313;-68
2024/02/06 10:20:46;;;;;;;3.45;1.90;;;;;;;16.83;35.55;97573.16;1223647;75;2923140;-64
2024/02/06 10:23:21;;;;;;;6.70;2.10;;;;;;;17.09;35.92;97576.63;1222765;83;2943860;-65
2024/02/06 10:26:05;;;;;;;6.30;2.55;;;;;;;17.05;35.06;97568.63;1224068;75;2924750;-66
2024/02/06 10:28:37;;;;;;;3.25;2.20;;;;;;;17.61;34.79;97564.38;1223851;75;2921162;-66
2024/02/06 10:31:14;;;;;;;5.15;2.35;;;;;;;18.93;33.19;97563.88;1224255;75;2923624;-68
2024/02/06 10:33:50;;;;;;;4.75;2.15;;;;;;;19.26;33.39;97549.81;1222185;75;2927111;-65
2024/02/06 10:36:23;;;;;;;5.40;2.30;;;;;;;18.36;33.27;97551.59;1223623;75;2904048;-64
2024/02/06 10:38:59;;;;;;;10.95;2.20;;;;;;;19.04;33.52;97545.50;1223276;75;2932035;-65
2024/02/06 10:41:32;;;;;;;3.75;2.35;;;;;;;19.49;32.61;97541.75;1222025;75;2929614;-65
2024/02/06 10:44:13;;;;;;;5.35;2.85;;;;;;;19.15;33.17;97534.16;1223215;75;2928749;-66
2024/02/06 10:46:46;;;;;;;4.45;2.40;;;;;;;19.67;33.72;97528.97;1223651;75;2927475;-65
2024/02/06 10:49:22;;;;;;;4.20;2.40;;;;;;;21.35;31.92;97539.69;1223199;75;2937384;-65
2024/02/06 10:52:05;;;;;;;4.95;2.05;;;;;;;20.33;32.03;97544.56;1222031;75;2929367;-64
2024/02/06 10:54:39;;;;;;;4.70;2.10;;;;;;;21.98;30.47;97523.25;1222473;75;2925626;-65
2024/02/06 10:57:16;;;;;;;8.15;3.45;;;;;;;20.96;30.73;97524.91;1222677;75;2913702;-64
2024/02/06 10:59:55;;;;;;;4.95;2.70;;;;;;;19.92;31.64;97529.41;1222487;75;2932054;-65
2024/02/06 11:02:31;;;;;;;5.20;2.95;;;;;;;19.93;32.35;97509.41;1221810;75;2924714;-66
2024/02/06 11:05:12;;;;;;;4.00;2.60;;;;;;;21.09;31.04;97504.53;1222334;75;2937098;-65
2024/02/06 11:07:52;;;;;;;4.00;2.45;;;;;;;20.74;31.46;97513.13;1223823;75;2922776;-65
2024/02/06 11:10:30;;;;;;;3.20;2.05;;;;;;;21.74;30.83;97505.06;1221219;75;2937961;-66
2024/02/06 11:13:09;;;;;;;6.30;3.05;;;;;;;20.54;31.37;97502.75;1221083;75;2973107;-65
2024/02/06 11:15:45;;;;;;;7.50;2.70;;;;;;;21.76;30.42;97504.50;1223135;75;2929088;-66
2024/02/06 11:18:21;;;;;;;7.70;2.60;;;;;;;20.47;31.27;97504.22;1223304;75;2923605;-67
2024/02/06 11:21:01;;;;;;;4.50;2.40;;;;;;;22.78;29.82;97494.16;1222854;75;2936144;-67
2024/02/06 11:23:34;;;;;;;3.40;1.80;;;;;;;23.51;29.33;97485.81;1222779;75;2928962;-65
2024/02/06 11:26:08;;;;;;;4.35;2.65;;;;;;;22.41;30.64;97487.38;1223425;75;2924299;-66
2024/02/06 11:28:42;;;;;;;4.85;2.20;;;;;;;23.19;29.49;97480.97;1224036;75;2936238;-67
2024/02/06 11:31:15;;;;;;;4.00;2.30;;;;;;;23.13;30.19;97474.84;1222570;75;2924190;-66
2024/02/06 11:33:48;;;;;;;6.40;3.05;;;;;;;22.13;30.93;97475.88;1221772;75;2928423;-67
2024/02/06 11:36:25;;;;;;;5.05;3.10;;;;;;;23.70;30.32;97471.31;1223736;75;2927827;-68
2024/02/06 11:39:08;;;;;;;4.95;3.50;;;;;;;23.21;30.04;97470.00;1163724;75;5826819;-65
2024/02/06 11:41:41;;;;;;;4.80;2.70;;;;;;;23.84;29.24;97466.22;1217428;75;3231548;-63
2024/02/06 11:44:16;;;;;;;5.70;2.70;;;;;;;22.29;30.42;97476.63;1223087;75;2935572;-63
2024/02/06 11:46:52;;;;;;;5.85;2.35;;;;;;;22.97;30.00;97460.97;1223391;75;2920904;-65
2024/02/06 11:49:27;;;;;;;3.65;2.20;;;;;;;22.76;29.96;97457.69;1222818;75;2923045;-64
2024/02/06 11:52:02;;;;;;;3.35;1.95;;;;;;;23.98;30.08;97456.22;1222359;75;2930187;-63